sensor_id;sensor_type;location;lat;lon;timestamp;pressure;altitude;pressure_sealevel;temperature;humidity
39301;BME280;25019;42.626;23.380;2024-01-27T00:00:28;94902.19;;;2.24;82.93
39301;BME280;25019;42.626;23.380;2024-01-27T00:02:53;94893.31;;;2.25;82.92
39301;BME280;25019;42.626;23.380;2024-01-27T00:05:19;94877.34;;;2.20;82.46
39301;BME280;25019;42.626;23.380;2024-01-27T00:07:45;94860.44;;;2.22;81.78
39301;BME280;25019;42.626;23.380;2024-01-27T00:10:10;94880.91;;;2.34;80.93
39301;BME280;25019;42.626;23.380;2024-01-27T00:12:36;94876.31;;;2.36;81.57
39301;BME280;25019;42.626;23.380;2024-01-27T00:15:02;94865.06;;;2.20;81.03
39301;BME280;25019;42.626;23.380;2024-01-27T00:17:28;94812.44;;;1.85;80.02
39301;BME280;25019;42.626;23.380;2024-01-27T00:19:54;94884.53;;;2.33;80.12
39301;BME280;25019;42.626;23.380;2024-01-27T00:22:20;94876.69;;;2.33;79.69
39301;BME280;25019;42.626;23.380;2024-01-27T00:24:46;94862.41;;;2.35;78.71
39301;BME280;25019;42.626;23.380;2024-01-27T00:27:12;94865.63;;;2.37;78.48
39301;BME280;25019;42.626;23.380;2024-01-27T00:29:38;94865.19;;;2.34;78.81
39301;BME280;25019;42.626;23.380;2024-01-27T00:32:03;94874.31;;;2.38;78.74
39301;BME280;25019;42.626;23.380;2024-01-27T00:34:29;94835.50;;;2.12;78.60
39301;BME280;25019;42.626;23.380;2024-01-27T00:36:55;94866.25;;;2.39;79.09
39301;BME280;25019;42.626;23.380;2024-01-27T00:39:20;94852.66;;;2.29;79.17
39301;BME280;25019;42.626;23.380;2024-01-27T00:41:46;94791.31;;;1.87;78.95
39301;BME280;25019;42.626;23.380;2024-01-27T00:44:12;94858.16;;;2.34;78.50
39301;BME280;25019;42.626;23.380;2024-01-27T00:46:38;94862.84;;;2.39;78.76
39301;BME280;25019;42.626;23.380;2024-01-27T00:49:03;94808.34;;;1.98;77.88
39301;BME280;25019;42.626;23.380;2024-01-27T00:51:29;94871.06;;;2.36;77.99
39301;BME280;25019;42.626;23.380;2024-01-27T00:53:55;94847.50;;;2.21;77.96
39301;BME280;25019;42.626;23.380;2024-01-27T00:56:20;94847.34;;;2.22;77.77
39301;BME280;25019;42.626;23.380;2024-01-27T00:58:46;94877.38;;;2.42;77.97
39301;BME280;25019;42.626;23.380;2024-01-27T01:01:11;94873.75;;;2.43;77.44
39301;BME280;25019;42.626;23.380;2024-01-27T01:03:37;94824.22;;;2.11;77.45
39301;BME280;25019;42.626;23.380;2024-01-27T01:06:03;94873.59;;;2.44;77.87
39301;BME280;25019;42.626;23.380;2024-01-27T01:08:29;94854.22;;;2.45;77.15
39301;BME280;25019;42.626;23.380;2024-01-27T01:10:54;94855.28;;;2.51;77.17
39301;BME280;25019;42.626;23.380;2024-01-27T01:13:20;94846.78;;;2.49;77.67
39301;BME280;25019;42.626;23.380;2024-01-27T01:15:46;94829.94;;;2.36;77.59
39301;BME280;25019;42.626;23.380;2024-01-27T01:18:12;94862.59;;;2.55;77.69
39301;BME280;25019;42.626;23.380;2024-01-27T01:20:37;94862.03;;;2.60;77.96
39301;BME280;25019;42.626;23.380;2024-01-27T01:23:03;94865.66;;;2.59;77.83
39301;BME280;25019;42.626;23.380;2024-01-27T01:25:29;94847.41;;;2.51;76.72
39301;BME280;25019;42.626;23.380;2024-01-27T01:27:54;94866.09;;;2.63;76.58
39301;BME280;25019;42.626;23.380;2024-01-27T01:30:20;94851.88;;;2.50;76.94
39301;BME280;25019;42.626;23.380;2024-01-27T01:32:46;94850.94;;;2.58;77.30
39301;BME280;25019;42.626;23.380;2024-01-27T01:35:12;94852.72;;;2.58;78.00
39301;BME280;25019;42.626;23.380;2024-01-27T01:37:37;94795.00;;;2.29;77.80
39301;BME280;25019;42.626;23.380;2024-01-27T01:40:03;94847.63;;;2.71;77.19
39301;BME280;25019;42.626;23.380;2024-01-27T01:42:29;94838.66;;;2.65;77.31
39301;BME280;25019;42.626;23.380;2024-01-27T01:44:55;94855.13;;;2.74;77.21
39301;BME280;25019;42.626;23.380;2024-01-27T01:47:21;94830.31;;;2.55;76.94
39301;BME280;25019;42.626;23.380;2024-01-27T01:49:50;94840.66;;;2.42;76.51
39301;BME280;25019;42.626;23.380;2024-01-27T01:52:16;94842.88;;;2.01;76.75
39301;BME280;25019;42.626;23.380;2024-01-27T01:54:49;94827.13;;;1.64;76.47
39301;BME280;25019;42.626;23.380;2024-01-27T01:57:15;94847.59;;;1.76;76.46
39301;BME280;25019;42.626;23.380;2024-01-27T01:59:41;94849.91;;;1.86;76.23
39301;BME280;25019;42.626;23.380;2024-01-27T02:02:08;94773.16;;;1.33;75.83
39301;BME280;25019;42.626;23.380;2024-01-27T02:04:43;94826.75;;;1.53;76.52
39301;BME280;25019;42.626;23.380;2024-01-27T02:07:09;94857.16;;;1.69;76.86
39301;BME280;25019;42.626;23.380;2024-01-27T02:09:35;94792.47;;;1.17;77.88
39301;BME280;25019;42.626;23.380;2024-01-27T02:12:01;94841.91;;;1.57;77.74
39301;BME280;25019;42.626;23.380;2024-01-27T02:14:27;94782.88;;;0.95;79.84
39301;BME280;25019;42.626;23.380;2024-01-27T02:16:53;94826.00;;;1.29;79.88
39301;BME280;25019;42.626;23.380;2024-01-27T02:19:19;94827.91;;;1.35;80.48
39301;BME280;25019;42.626;23.380;2024-01-27T02:21:45;94777.47;;;1.11;81.29
39301;BME280;25019;42.626;23.380;2024-01-27T02:24:11;94735.34;;;0.91;81.04
39301;BME280;25019;42.626;23.380;2024-01-27T02:26:37;94814.75;;;1.28;79.75
39301;BME280;25019;42.626;23.380;2024-01-27T02:29:03;94796.41;;;1.13;79.29
39301;BME280;25019;42.626;23.380;2024-01-27T02:31:28;94814.13;;;1.26;79.34
39301;BME280;25019;42.626;23.380;2024-01-27T02:33:54;94783.41;;;1.05;79.56
39301;BME280;25019;42.626;23.380;2024-01-27T02:36:20;94817.16;;;1.30;79.86
39301;BME280;25019;42.626;23.380;2024-01-27T02:38:46;94798.03;;;1.14;80.04
39301;BME280;25019;42.626;23.380;2024-01-27T02:41:11;94729.00;;;0.70;79.68
39301;BME280;25019;42.626;23.380;2024-01-27T02:43:37;94768.53;;;1.06;78.54
39301;BME280;25019;42.626;23.380;2024-01-27T02:46:11;94830.78;;;1.10;78.93
39301;BME280;25019;42.626;23.380;2024-01-27T02:48:41;94823.63;;;0.89;81.30
39301;BME280;25019;42.626;23.380;2024-01-27T02:51:10;94821.44;;;0.78;86.50
39301;BME280;25019;42.626;23.380;2024-01-27T02:53:36;94782.59;;;0.51;88.16
39301;BME280;25019;42.626;23.380;2024-01-27T02:56:02;94809.81;;;0.80;89.85
39301;BME280;25019;42.626;23.380;2024-01-27T02:58:27;94807.63;;;0.69;91.78
39301;BME280;25019;42.626;23.380;2024-01-27T03:00:53;94817.06;;;0.55;94.92
39301;BME280;25019;42.626;23.380;2024-01-27T03:03:19;94806.75;;;0.53;94.71
39301;BME280;25019;42.626;23.380;2024-01-27T03:05:44;94817.38;;;0.75;94.81
39301;BME280;25019;42.626;23.380;2024-01-27T03:08:10;94834.94;;;0.66;96.16
39301;BME280;25019;42.626;23.380;2024-01-27T03:10:36;94837.72;;;0.65;95.92
39301;BME280;25019;42.626;23.380;2024-01-27T03:13:02;94841.72;;;0.76;96.14
39301;BME280;25019;42.626;23.380;2024-01-27T03:15:28;94828.06;;;0.65;96.24
39301;BME280;25019;42.626;23.380;2024-01-27T03:17:53;94822.72;;;0.35;98.80
39301;BME280;25019;42.626;23.380;2024-01-27T03:20:19;94838.91;;;0.39;100.00
39301;BME280;25019;42.626;23.380;2024-01-27T03:22:45;94824.00;;;0.39;100.00
39301;BME280;25019;42.626;23.380;2024-01-27T03:25:10;94820.53;;;0.47;100.00
39301;BME280;25019;42.626;23.380;2024-01-27T03:27:36;94831.13;;;0.54;100.00
39301;BME280;25019;42.626;23.380;2024-01-27T03:30:02;94827.63;;;0.62;100.00
39301;BME280;25019;42.626;23.380;2024-01-27T03:32:29;94801.66;;;0.13;100.00
39301;BME280;25019;42.626;23.380;2024-01-27T03:35:02;94805.38;;;0.19;100.00
39301;BME280;25019;42.626;23.380;2024-01-27T03:37:28;94824.00;;;0.39;100.00
39301;BME280;25019;42.626;23.380;2024-01-27T03:39:54;94826.38;;;0.49;100.00
39301;BME280;25019;42.626;23.380;2024-01-27T03:42:19;94817.16;;;0.38;100.00
39301;BME280;25019;42.626;23.380;2024-01-27T03:44:46;94814.31;;;0.48;100.00
39301;BME280;25019;42.626;23.380;2024-01-27T03:47:11;94800.53;;;0.54;100.00
39301;BME280;25019;42.626;23.380;2024-01-27T03:49:37;94682.00;;;-0.06;100.00
39301;BME280;25019;42.626;23.380;2024-01-27T03:52:04;94815.59;;;0.91;100.00
39301;BME280;25019;42.626;23.380;2024-01-27T03:54:30;94805.22;;;0.82;100.00
39301;BME280;25019;42.626;23.380;2024-01-27T03:56:55;94810.03;;;0.94;100.00
39301;BME280;25019;42.626;23.380;2024-01-27T03:59:21;94802.69;;;0.89;100.00
39301;BME280;25019;42.626;23.380;2024-01-27T04:01:47;94685.94;;;0.13;100.00
39301;BME280;25019;42.626;23.380;2024-01-27T04:04:13;94793.78;;;0.98;100.00
39301;BME280;25019;42.626;23.380;2024-01-27T04:06:42;94735.41;;;0.68;100.00
39301;BME280;25019;42.626;23.380;2024-01-27T04:09:08;94800.13;;;1.19;100.00
39301;BME280;25019;42.626;23.380;2024-01-27T04:11:37;94668.22;;;0.38;100.00
39301;BME280;25019;42.626;23.380;2024-01-27T04:14:03;94811.50;;;1.41;100.00
39301;BME280;25019;42.626;23.380;2024-01-27T04:16:30;94779.25;;;1.41;100.00
39301;BME280;25019;42.626;23.380;2024-01-27T04:18:56;94808.16;;;1.62;100.00
39301;BME280;25019;42.626;23.380;2024-01-27T04:21:21;94805.06;;;1.74;100.00
39301;BME280;25019;42.626;23.380;2024-01-27T04:23:47;94803.78;;;1.85;100.00
39301;BME280;25019;42.626;23.380;2024-01-27T04:26:13;94792.06;;;1.81;100.00
39301;BME280;25019;42.626;23.380;2024-01-27T04:28:38;94759.59;;;1.45;100.00
39301;BME280;25019;42.626;23.380;2024-01-27T04:31:04;94808.47;;;1.89;100.00
39301;BME280;25019;42.626;23.380;2024-01-27T04:33:30;94807.28;;;1.92;100.00
39301;BME280;25019;42.626;23.380;2024-01-27T04:35:56;94724.94;;;1.43;100.00
39301;BME280;25019;42.626;23.380;2024-01-27T04:38:22;94795.53;;;1.88;100.00
39301;BME280;25019;42.626;23.380;2024-01-27T04:40:48;94679.69;;;1.12;100.00
39301;BME280;25019;42.626;23.380;2024-01-27T04:43:15;94804.38;;;2.02;100.00
39301;BME280;25019;42.626;23.380;2024-01-27T04:45:42;94794.88;;;2.01;100.00
39301;BME280;25019;42.626;23.380;2024-01-27T04:48:07;94738.53;;;1.68;100.00
39301;BME280;25019;42.626;23.380;2024-01-27T04:50:33;94751.47;;;1.91;100.00
39301;BME280;25019;42.626;23.380;2024-01-27T04:52:59;94797.88;;;2.34;100.00
39301;BME280;25019;42.626;23.380;2024-01-27T04:55:25;94797.88;;;2.34;100.00
39301;BME280;25019;42.626;23.380;2024-01-27T04:57:51;94763.66;;;2.21;100.00
39301;BME280;25019;42.626;23.380;2024-01-27T05:00:16;94784.19;;;2.39;100.00
39301;BME280;25019;42.626;23.380;2024-01-27T05:02:43;94802.84;;;2.51;100.00
39301;BME280;25019;42.626;23.380;2024-01-27T05:05:08;94786.06;;;2.45;100.00
39301;BME280;25019;42.626;23.380;2024-01-27T05:07:34;94802.78;;;2.44;100.00
39301;BME280;25019;42.626;23.380;2024-01-27T05:10:00;94795.34;;;2.26;100.00
39301;BME280;25019;42.626;23.380;2024-01-27T05:12:26;94779.19;;;2.22;100.00
39301;BME280;25019;42.626;23.380;2024-01-27T05:14:52;94794.78;;;2.31;100.00
39301;BME280;25019;42.626;23.380;2024-01-27T05:17:17;94819.63;;;2.35;100.00
39301;BME280;25019;42.626;23.380;2024-01-27T05:19:43;94819.47;;;2.36;100.00
39301;BME280;25019;42.626;23.380;2024-01-27T05:22:09;94814.75;;;2.32;100.00
39301;BME280;25019;42.626;23.380;2024-01-27T05:24:34;94815.38;;;2.34;100.00
39301;BME280;25019;42.626;23.380;2024-01-27T05:27:00;94802.53;;;2.17;100.00
39301;BME280;25019;42.626;23.380;2024-01-27T05:29:27;94811.88;;;2.27;100.00
39301;BME280;25019;42.626;23.380;2024-01-27T05:31:53;94822.81;;;2.30;100.00
39301;BME280;25019;42.626;23.380;2024-01-27T05:34:19;94761.59;;;1.94;100.00
39301;BME280;25019;42.626;23.380;2024-01-27T05:36:47;94826.91;;;2.18;100.00
39301;BME280;25019;42.626;23.380;2024-01-27T05:39:13;94821.53;;;2.04;100.00
39301;BME280;25019;42.626;23.380;2024-01-27T05:41:39;94820.38;;;1.92;100.00
39301;BME280;25019;42.626;23.380;2024-01-27T05:44:05;94773.75;;;1.66;100.00
39301;BME280;25019;42.626;23.380;2024-01-27T05:46:31;94835.31;;;1.91;100.00
39301;BME280;25019;42.626;23.380;2024-01-27T05:48:56;94825.56;;;1.55;100.00
39301;BME280;25019;42.626;23.380;2024-01-27T05:51:26;94780.53;;;1.00;100.00
39301;BME280;25019;42.626;23.380;2024-01-27T05:53:52;94747.94;;;0.72;100.00
39301;BME280;25019;42.626;23.380;2024-01-27T05:56:18;94773.03;;;0.82;100.00
39301;BME280;25019;42.626;23.380;2024-01-27T05:58:47;94830.72;;;1.18;100.00
39301;BME280;25019;42.626;23.380;2024-01-27T06:01:13;94836.22;;;1.09;100.00
39301;BME280;25019;42.626;23.380;2024-01-27T06:03:43;94846.38;;;1.03;100.00
39301;BME280;25019;42.626;23.380;2024-01-27T06:06:09;94792.50;;;0.79;100.00
39301;BME280;25019;42.626;23.380;2024-01-27T06:08:35;94841.66;;;0.99;100.00
39301;BME280;25019;42.626;23.380;2024-01-27T06:11:01;94817.69;;;0.95;100.00
39301;BME280;25019;42.626;23.380;2024-01-27T06:13:26;94845.53;;;0.88;100.00
39301;BME280;25019;42.626;23.380;2024-01-27T06:15:52;94847.78;;;0.91;100.00
39301;BME280;25019;42.626;23.380;2024-01-27T06:18:18;94847.06;;;0.82;100.00
39301;BME280;25019;42.626;23.380;2024-01-27T06:20:44;94760.91;;;0.27;100.00
39301;BME280;25019;42.626;23.380;2024-01-27T06:23:09;94786.44;;;0.40;100.00
39301;BME280;25019;42.626;23.380;2024-01-27T06:25:35;94876.28;;;0.86;100.00
39301;BME280;25019;42.626;23.380;2024-01-27T06:28:01;94872.50;;;0.88;100.00
39301;BME280;25019;42.626;23.380;2024-01-27T06:30:26;94877.50;;;0.98;100.00
39301;BME280;25019;42.626;23.380;2024-01-27T06:32:52;94856.72;;;0.82;100.00
39301;BME280;25019;42.626;23.380;2024-01-27T06:35:18;94870.00;;;0.95;100.00
39301;BME280;25019;42.626;23.380;2024-01-27T06:37:43;94875.31;;;1.02;100.00
39301;BME280;25019;42.626;23.380;2024-01-27T06:40:09;94873.69;;;1.01;100.00
39301;BME280;25019;42.626;23.380;2024-01-27T06:42:35;94875.25;;;1.10;100.00
39301;BME280;25019;42.626;23.380;2024-01-27T06:45:01;94772.63;;;0.55;100.00
39301;BME280;25019;42.626;23.380;2024-01-27T06:47:27;94801.22;;;0.71;100.00
39301;BME280;25019;42.626;23.380;2024-01-27T06:49:53;94883.88;;;1.34;100.00
39301;BME280;25019;42.626;23.380;2024-01-27T06:52:18;94842.34;;;1.61;100.00
39301;BME280;25019;42.626;23.380;2024-01-27T06:54:44;94880.97;;;2.40;100.00
39301;BME280;25019;42.626;23.380;2024-01-27T06:57:20;94883.75;;;2.76;100.00
39301;BME280;25019;42.626;23.380;2024-01-27T06:59:51;94890.72;;;3.05;100.00
39301;BME280;25019;42.626;23.380;2024-01-27T07:02:25;94812.94;;;2.76;100.00
39301;BME280;25019;42.626;23.380;2024-01-27T07:04:52;94796.94;;;2.92;100.00
39301;BME280;25019;42.626;23.380;2024-01-27T07:07:22;94856.38;;;3.64;100.00
39301;BME280;25019;42.626;23.380;2024-01-27T07:09:49;94857.28;;;3.84;100.00
39301;BME280;25019;42.626;23.380;2024-01-27T07:12:15;94835.25;;;3.85;100.00
39301;BME280;25019;42.626;23.380;2024-01-27T07:14:41;94837.09;;;3.92;100.00
39301;BME280;25019;42.626;23.380;2024-01-27T07:17:06;94844.31;;;4.18;100.00
39301;BME280;25019;42.626;23.380;2024-01-27T07:19:32;94833.56;;;4.19;100.00
39301;BME280;25019;42.626;23.380;2024-01-27T07:21:58;94834.38;;;4.20;100.00
39301;BME280;25019;42.626;23.380;2024-01-27T07:24:26;94825.47;;;4.21;100.00
39301;BME280;25019;42.626;23.380;2024-01-27T07:26:52;94833.56;;;4.19;100.00
39301;BME280;25019;42.626;23.380;2024-01-27T07:29:17;94761.03;;;3.77;100.00
39301;BME280;25019;42.626;23.380;2024-01-27T07:31:43;94728.06;;;3.60;100.00
39301;BME280;25019;42.626;23.380;2024-01-27T07:34:09;94851.81;;;4.28;100.00
39301;BME280;25019;42.626;23.380;2024-01-27T07:36:34;94842.09;;;4.28;100.00
39301;BME280;25019;42.626;23.380;2024-01-27T07:39:00;94901.53;;;4.23;100.00
39301;BME280;25019;42.626;23.380;2024-01-27T07:41:26;94901.06;;;4.12;100.00
39301;BME280;25019;42.626;23.380;2024-01-27T07:43:54;94912.78;;;4.03;100.00
39301;BME280;25019;42.626;23.380;2024-01-27T07:46:20;94909.94;;;3.69;100.00
39301;BME280;25019;42.626;23.380;2024-01-27T07:48:51;94937.72;;;3.85;100.00
39301;BME280;25019;42.626;23.380;2024-01-27T07:51:17;94928.78;;;3.73;100.00
39301;BME280;25019;42.626;23.380;2024-01-27T07:53:43;94946.78;;;3.76;100.00
39301;BME280;25019;42.626;23.380;2024-01-27T07:56:09;94846.75;;;3.14;100.00
39301;BME280;25019;42.626;23.380;2024-01-27T07:58:34;94919.53;;;3.55;100.00
39301;BME280;25019;42.626;23.380;2024-01-27T08:01:00;94925.03;;;3.60;100.00
39301;BME280;25019;42.626;23.380;2024-01-27T08:03:26;94936.13;;;3.56;100.00
39301;BME280;25019;42.626;23.380;2024-01-27T08:05:51;94943.44;;;3.60;100.00
39301;BME280;25019;42.626;23.380;2024-01-27T08:08:17;94948.50;;;3.62;100.00
39301;BME280;25019;42.626;23.380;2024-01-27T08:10:44;94949.09;;;3.64;100.00
39301;BME280;25019;42.626;23.380;2024-01-27T08:13:10;94945.09;;;3.68;100.00
39301;BME280;25019;42.626;23.380;2024-01-27T08:15:36;94914.38;;;3.62;100.00
39301;BME280;25019;42.626;23.380;2024-01-27T08:18:02;94934.59;;;3.68;100.00
39301;BME280;25019;42.626;23.380;2024-01-27T08:20:27;94869.75;;;3.40;100.00
39301;BME280;25019;42.626;23.380;2024-01-27T08:22:53;94932.09;;;3.88;100.00
39301;BME280;25019;42.626;23.380;2024-01-27T08:25:19;94944.84;;;3.92;100.00
39301;BME280;25019;42.626;23.380;2024-01-27T08:27:44;94938.78;;;3.91;100.00
39301;BME280;25019;42.626;23.380;2024-01-27T08:30:10;94919.59;;;3.97;100.00
39301;BME280;25019;42.626;23.380;2024-01-27T08:32:36;94909.34;;;4.09;100.00
39301;BME280;25019;42.626;23.380;2024-01-27T08:35:02;94898.03;;;4.09;100.00
39301;BME280;25019;42.626;23.380;2024-01-27T08:37:28;94905.41;;;4.27;100.00
39301;BME280;25019;42.626;23.380;2024-01-27T08:39:53;94853.66;;;3.85;100.00
39301;BME280;25019;42.626;23.380;2024-01-27T08:42:19;94938.41;;;4.36;100.00
39301;BME280;25019;42.626;23.380;2024-01-27T08:44:45;94862.88;;;4.16;100.00
39301;BME280;25019;42.626;23.380;2024-01-27T08:47:11;94877.66;;;4.17;100.00
39301;BME280;25019;42.626;23.380;2024-01-27T08:49:36;94882.91;;;4.17;100.00
39301;BME280;25019;42.626;23.380;2024-01-27T08:52:03;94893.41;;;4.17;100.00
39301;BME280;25019;42.626;23.380;2024-01-27T08:54:28;94904.31;;;4.14;100.00
39301;BME280;25019;42.626;23.380;2024-01-27T08:56:54;94792.66;;;3.48;100.00
39301;BME280;25019;42.626;23.380;2024-01-27T08:59:20;94905.19;;;4.22;100.00
39301;BME280;25019;42.626;23.380;2024-01-27T09:01:46;94881.03;;;4.04;100.00
39301;BME280;25019;42.626;23.380;2024-01-27T09:04:11;94866.28;;;4.03;100.00
39301;BME280;25019;42.626;23.380;2024-01-27T09:06:37;94871.91;;;4.00;100.00
39301;BME280;25019;42.626;23.380;2024-01-27T09:09:03;94867.09;;;4.04;100.00
39301;BME280;25019;42.626;23.380;2024-01-27T09:11:29;94867.72;;;4.13;100.00
39301;BME280;25019;42.626;23.380;2024-01-27T09:13:59;94873.41;;;4.23;100.00
39301;BME280;25019;42.626;23.380;2024-01-27T09:16:25;94869.38;;;4.20;100.00
39301;BME280;25019;42.626;23.380;2024-01-27T09:18:50;94874.66;;;4.34;100.00
39301;BME280;25019;42.626;23.380;2024-01-27T09:21:16;94853.53;;;4.07;100.00
39301;BME280;25019;42.626;23.380;2024-01-27T09:23:46;94855.25;;;4.35;100.00
39301;BME280;25019;42.626;23.380;2024-01-27T09:26:15;94822.59;;;4.09;100.00
39301;BME280;25019;42.626;23.380;2024-01-27T09:28:44;94872.41;;;4.17;100.00
39301;BME280;25019;42.626;23.380;2024-01-27T09:31:11;94837.59;;;4.15;100.00
39301;BME280;25019;42.626;23.380;2024-01-27T09:33:37;94868.34;;;4.15;100.00
39301;BME280;25019;42.626;23.380;2024-01-27T09:36:03;94881.44;;;4.08;100.00
39301;BME280;25019;42.626;23.380;2024-01-27T09:38:29;94875.97;;;4.03;100.00
39301;BME280;25019;42.626;23.380;2024-01-27T09:40:55;94829.59;;;3.82;100.00
39301;BME280;25019;42.626;23.380;2024-01-27T09:43:21;94924.91;;;4.53;100.00
39301;BME280;25019;42.626;23.380;2024-01-27T09:45:47;94898.84;;;4.58;100.00
39301;BME280;25019;42.626;23.380;2024-01-27T09:48:13;94876.13;;;4.43;100.00
39301;BME280;25019;42.626;23.380;2024-01-27T09:50:41;94870.44;;;4.40;100.00
39301;BME280;25019;42.626;23.380;2024-01-27T09:53:07;94926.41;;;4.89;100.00
39301;BME280;25019;42.626;23.380;2024-01-27T09:55:35;94891.63;;;4.93;100.00
39301;BME280;25019;42.626;23.380;2024-01-27T09:58:00;94930.72;;;5.10;100.00
39301;BME280;25019;42.626;23.380;2024-01-27T10:00:27;94929.91;;;5.09;100.00
39301;BME280;25019;42.626;23.380;2024-01-27T10:02:54;94924.22;;;5.06;100.00
39301;BME280;25019;42.626;23.380;2024-01-27T10:05:20;94865.44;;;4.58;100.00
39301;BME280;25019;42.626;23.380;2024-01-27T10:07:47;94906.66;;;4.38;100.00
39301;BME280;25019;42.626;23.380;2024-01-27T10:10:12;94925.38;;;4.70;100.00
39301;BME280;25019;42.626;23.380;2024-01-27T10:12:41;94922.38;;;4.79;100.00
39301;BME280;25019;42.626;23.380;2024-01-27T10:15:22;94923.59;;;4.84;100.00
39301;BME280;25019;42.626;23.380;2024-01-27T10:17:48;94927.88;;;5.05;100.00
39301;BME280;25019;42.626;23.380;2024-01-27T10:20:14;94927.28;;;5.09;100.00
39301;BME280;25019;42.626;23.380;2024-01-27T10:22:42;94940.22;;;4.98;100.00
39301;BME280;25019;42.626;23.380;2024-01-27T10:25:09;94934.97;;;5.04;100.00
39301;BME280;25019;42.626;23.380;2024-01-27T10:27:37;94940.44;;;5.09;100.00
39301;BME280;25019;42.626;23.380;2024-01-27T10:30:04;94915.50;;;4.92;100.00
39301;BME280;25019;42.626;23.380;2024-01-27T10:32:33;94926.63;;;4.87;100.00
39301;BME280;25019;42.626;23.380;2024-01-27T10:35:05;94929.09;;;5.09;100.00
39301;BME280;25019;42.626;23.380;2024-01-27T10:37:34;94935.75;;;5.05;100.00
39301;BME280;25019;42.626;23.380;2024-01-27T10:40:04;94908.00;;;4.89;100.00
39301;BME280;25019;42.626;23.380;2024-01-27T10:42:30;94940.56;;;4.81;100.00
39301;BME280;25019;42.626;23.380;2024-01-27T10:44:59;94920.06;;;4.63;100.00
39301;BME280;25019;42.626;23.380;2024-01-27T10:47:27;94807.34;;;3.78;100.00
39301;BME280;25019;42.626;23.380;2024-01-27T10:49:58;94941.31;;;4.55;100.00
39301;BME280;25019;42.626;23.380;2024-01-27T10:52:28;94940.69;;;4.46;100.00
39301;BME280;25019;42.626;23.380;2024-01-27T10:55:05;94929.31;;;4.39;100.00
39301;BME280;25019;42.626;23.380;2024-01-27T10:57:34;94923.41;;;4.30;100.00
39301;BME280;25019;42.626;23.380;2024-01-27T11:00:01;94953.56;;;4.89;100.00
39301;BME280;25019;42.626;23.380;2024-01-27T11:02:32;94946.88;;;4.87;100.00
39301;BME280;25019;42.626;23.380;2024-01-27T11:05:00;94968.19;;;4.99;100.00
39301;BME280;25019;42.626;23.380;2024-01-27T11:07:26;94910.13;;;4.45;100.00
39301;BME280;25019;42.626;23.380;2024-01-27T11:09:52;94915.19;;;4.53;100.00
39301;BME280;25019;42.626;23.380;2024-01-27T11:12:19;94974.84;;;4.94;100.00
39301;BME280;25019;42.626;23.380;2024-01-27T11:14:47;94983.06;;;4.78;100.00
39301;BME280;25019;42.626;23.380;2024-01-27T11:17:14;94997.63;;;4.67;100.00
39301;BME280;25019;42.626;23.380;2024-01-27T11:19:41;94994.13;;;4.53;100.00
39301;BME280;25019;42.626;23.380;2024-01-27T11:22:06;94992.88;;;4.49;100.00
39301;BME280;25019;42.626;23.380;2024-01-27T11:24:32;95000.38;;;4.52;100.00
39301;BME280;25019;42.626;23.380;2024-01-27T11:27:05;94995.25;;;4.37;100.00
39301;BME280;25019;42.626;23.380;2024-01-27T11:29:32;94925.63;;;3.91;100.00
39301;BME280;25019;42.626;23.380;2024-01-27T11:32:02;95029.78;;;4.27;100.00
39301;BME280;25019;42.626;23.380;2024-01-27T11:34:28;94941.84;;;3.66;100.00
39301;BME280;25019;42.626;23.380;2024-01-27T11:36:53;95011.41;;;3.99;100.00
39301;BME280;25019;42.626;23.380;2024-01-27T11:39:24;94998.00;;;3.87;100.00
39301;BME280;25019;42.626;23.380;2024-01-27T11:41:51;95011.44;;;3.77;100.00
39301;BME280;25019;42.626;23.380;2024-01-27T11:44:17;95010.78;;;3.47;100.00
39301;BME280;25019;42.626;23.380;2024-01-27T11:46:44;95026.38;;;3.48;100.00
39301;BME280;25019;42.626;23.380;2024-01-27T11:49:17;95037.50;;;3.50;100.00
39301;BME280;25019;42.626;23.380;2024-01-27T11:51:43;95004.34;;;3.27;100.00
39301;BME280;25019;42.626;23.380;2024-01-27T11:54:09;94967.13;;;3.17;100.00
39301;BME280;25019;42.626;23.380;2024-01-27T11:56:35;95026.94;;;3.43;100.00
39301;BME280;25019;42.626;23.380;2024-01-27T11:59:01;95032.50;;;3.55;100.00
39301;BME280;25019;42.626;23.380;2024-01-27T12:01:26;95030.81;;;3.48;100.00
39301;BME280;25019;42.626;23.380;2024-01-27T12:03:52;95049.19;;;3.69;100.00
39301;BME280;25019;42.626;23.380;2024-01-27T12:06:18;95040.16;;;3.79;100.00
39301;BME280;25019;42.626;23.380;2024-01-27T12:08:44;95020.41;;;3.83;100.00
39301;BME280;25019;42.626;23.380;2024-01-27T12:11:13;95041.34;;;3.98;100.00
39301;BME280;25019;42.626;23.380;2024-01-27T12:13:40;95034.38;;;4.18;100.00
39301;BME280;25019;42.626;23.380;2024-01-27T12:16:06;94984.63;;;3.82;100.00
39301;BME280;25019;42.626;23.380;2024-01-27T12:18:32;95042.66;;;4.15;100.00
39301;BME280;25019;42.626;23.380;2024-01-27T12:20:58;94950.72;;;3.65;100.00
39301;BME280;25019;42.626;23.380;2024-01-27T12:23:24;95008.97;;;3.97;100.00
39301;BME280;25019;42.626;23.380;2024-01-27T12:25:56;95032.97;;;4.16;100.00
39301;BME280;25019;42.626;23.380;2024-01-27T12:28:23;94973.91;;;3.83;100.00
39301;BME280;25019;42.626;23.380;2024-01-27T12:30:50;95052.69;;;4.33;100.00
39301;BME280;25019;42.626;23.380;2024-01-27T12:33:16;95039.41;;;4.42;100.00
39301;BME280;25019;42.626;23.380;2024-01-27T12:35:45;95036.75;;;4.42;100.00
39301;BME280;25019;42.626;23.380;2024-01-27T12:38:12;95045.72;;;4.54;100.00
39301;BME280;25019;42.626;23.380;2024-01-27T12:40:38;94993.75;;;4.21;100.00
39301;BME280;25019;42.626;23.380;2024-01-27T12:43:04;95041.97;;;4.35;100.00
39301;BME280;25019;42.626;23.380;2024-01-27T12:45:30;94992.56;;;3.95;100.00
39301;BME280;25019;42.626;23.380;2024-01-27T12:47:55;95052.16;;;4.45;100.00